createdAt,value
2019-02-18T00:01:03.074Z,5.10
2019-02-18T00:03:32.576Z,5.15
2019-02-18T00:06:02.090Z,5.21
2019-02-18T00:08:31.525Z,5.25
2019-02-18T00:11:00.958Z,5.27
2019-02-18T00:13:33.284Z,5.35
2019-02-18T00:16:02.848Z,5.39
2019-02-18T00:18:32.791Z,5.40
2019-02-18T00:21:03.447Z,5.37
2019-02-18T00:23:36.217Z,5.39
2019-02-18T00:26:07.514Z,5.41
2019-02-18T00:28:37.141Z,5.47
2019-02-18T00:31:06.514Z,5.54
2019-02-18T00:33:36.236Z,5.57
2019-02-18T00:36:05.737Z,5.57
2019-02-18T00:38:37.302Z,5.51
2019-02-18T00:41:06.722Z,5.51
2019-02-18T00:43:36.175Z,5.54
2019-02-18T00:46:05.593Z,5.56
2019-02-18T00:48:35.019Z,5.60
2019-02-18T00:51:04.456Z,5.67
2019-02-18T00:53:38.379Z,5.67
2019-02-18T00:56:07.813Z,5.62
2019-02-18T00:58:38.775Z,5.60
2019-02-18T01:01:09.745Z,5.59
2019-02-18T01:03:40.371Z,5.59
2019-02-18T01:06:09.807Z,5.59
2019-02-18T01:08:39.241Z,5.57
2019-02-18T01:11:08.681Z,5.53
2019-02-18T01:13:38.101Z,5.55
2019-02-18T01:16:09.225Z,5.53
2019-02-18T01:18:38.644Z,5.48
2019-02-18T01:21:08.219Z,5.49
2019-02-18T01:23:37.636Z,5.46
2019-02-18T01:26:07.072Z,5.45
2019-02-18T01:28:38.263Z,5.43
2019-02-18T01:31:09.183Z,5.45
2019-02-18T01:33:38.653Z,5.45
2019-02-18T01:36:14.143Z,5.44
2019-02-18T01:38:43.566Z,5.41
2019-02-18T01:41:12.999Z,5.45
2019-02-18T01:43:42.981Z,5.43
2019-02-18T01:46:12.405Z,5.44
2019-02-18T01:48:41.830Z,5.45
2019-02-18T01:51:13.663Z,5.47
2019-02-18T01:53:43.079Z,5.46
2019-02-18T01:56:15.290Z,5.47
2019-02-18T01:58:44.972Z,5.48
2019-02-18T02:01:14.475Z,5.45
2019-02-18T02:03:43.976Z,5.46
2019-02-18T02:06:13.484Z,5.43
2019-02-18T02:08:44.966Z,5.45
2019-02-18T02:11:14.443Z,5.45
2019-02-18T02:13:43.948Z,5.42
2019-02-18T02:16:13.439Z,5.44
2019-02-18T02:18:42.878Z,5.42
2019-02-18T02:21:12.292Z,5.39
2019-02-18T02:23:41.734Z,5.37
2019-02-18T02:26:11.148Z,5.33
2019-02-18T02:28:40.589Z,5.33
2019-02-18T02:31:10.070Z,5.36
2019-02-18T02:33:39.512Z,5.38
2019-02-18T02:36:08.918Z,5.41
2019-02-18T02:38:39.864Z,5.42
2019-02-18T02:41:09.674Z,5.42
2019-02-18T02:43:39.106Z,5.41
2019-02-18T02:46:10.137Z,5.40
2019-02-18T02:48:39.580Z,5.40
2019-02-18T02:51:09.112Z,5.44
2019-02-18T02:53:38.600Z,5.57
2019-02-18T02:56:09.613Z,5.70
2019-02-18T02:58:39.033Z,5.70
2019-02-18T03:01:08.449Z,5.67
2019-02-18T03:03:37.943Z,5.67
2019-02-18T03:06:07.430Z,5.69
2019-02-18T03:08:37.939Z,5.67
2019-02-18T03:11:07.380Z,5.74
2019-02-18T03:13:36.816Z,5.71
2019-02-18T03:16:06.694Z,5.65
2019-02-18T03:18:36.129Z,5.61
2019-02-18T03:21:05.688Z,5.53
2019-02-18T03:23:35.129Z,5.48
2019-02-18T03:26:04.605Z,5.48
2019-02-18T03:28:42.392Z,5.44
2019-02-18T03:31:17.726Z,5.36
2019-02-18T03:33:50.430Z,5.33
2019-02-18T03:36:19.867Z,5.30
2019-02-18T03:38:51.996Z,5.28
2019-02-18T03:41:21.511Z,5.27
2019-02-18T03:43:50.951Z,5.29
2019-02-18T03:46:20.357Z,5.29
2019-02-18T03:48:49.797Z,5.25
2019-02-18T03:51:19.277Z,5.20
2019-02-18T03:53:48.710Z,5.22
2019-02-18T03:56:18.269Z,5.21
2019-02-18T03:58:47.797Z,5.15
2019-02-18T04:01:17.259Z,5.10
2019-02-18T04:03:46.759Z,5.10
2019-02-18T04:06:16.171Z,5.09
2019-02-18T04:08:45.610Z,5.05
2019-02-18T04:11:15.172Z,5.01
2019-02-18T04:13:44.606Z,4.97
2019-02-18T04:16:14.031Z,4.98
2019-02-18T04:18:43.472Z,4.92
2019-02-18T04:21:13.048Z,4.85
2019-02-18T04:23:42.492Z,4.83
2019-02-18T04:26:11.916Z,4.79
2019-02-18T04:28:44.295Z,4.78
2019-02-18T04:31:13.716Z,4.77
2019-02-18T04:33:43.148Z,4.76
2019-02-18T04:36:12.566Z,4.79
2019-02-18T04:38:42.015Z,4.82
2019-02-18T04:41:11.437Z,4.84
2019-02-18T04:43:42.132Z,4.86
2019-02-18T04:46:11.769Z,4.86
2019-02-18T04:48:41.208Z,4.85
2019-02-18T04:51:12.125Z,4.87
2019-02-18T04:53:41.580Z,4.92
2019-02-18T04:56:10.990Z,4.91
2019-02-18T04:58:40.407Z,4.92
2019-02-18T05:01:09.918Z,4.92
2019-02-18T05:03:42.384Z,4.90
2019-02-18T05:06:11.823Z,4.87
2019-02-18T05:08:41.847Z,4.89
2019-02-18T05:11:11.453Z,4.88
2019-02-18T05:13:40.885Z,4.86
2019-02-18T05:16:10.326Z,4.82
2019-02-18T05:18:39.751Z,4.79
2019-02-18T05:21:09.352Z,4.80
2019-02-18T05:23:38.781Z,4.76
2019-02-18T05:26:08.213Z,4.78
2019-02-18T05:28:37.625Z,4.72
2019-02-18T05:31:07.073Z,4.68
2019-02-18T05:33:36.490Z,4.66
2019-02-18T05:36:06.003Z,4.60
2019-02-18T05:38:35.419Z,4.55
2019-02-18T05:41:04.939Z,4.50
2019-02-18T05:43:34.377Z,4.45
2019-02-18T05:46:03.873Z,4.42
2019-02-18T05:48:34.171Z,4.34
2019-02-18T05:51:04.511Z,4.31
2019-02-18T05:53:33.931Z,4.23
2019-02-18T05:56:03.361Z,4.11
2019-02-18T05:58:32.799Z,4.04
2019-02-18T06:01:05.703Z,3.99
2019-02-18T06:03:35.261Z,3.97
2019-02-18T06:06:04.755Z,3.91
2019-02-18T06:08:34.190Z,3.81
2019-02-18T06:11:03.615Z,3.72
2019-02-18T06:13:33.057Z,3.64
2019-02-18T06:16:02.479Z,3.51
2019-02-18T06:18:31.925Z,3.45
2019-02-18T06:21:02.856Z,3.36
2019-02-18T06:23:32.406Z,3.28
2019-02-18T06:26:01.830Z,3.24
2019-02-18T06:28:33.491Z,3.26
2019-02-18T06:31:02.904Z,3.32
2019-02-18T06:33:32.350Z,3.33
2019-02-18T06:36:01.767Z,3.37
2019-02-18T06:38:31.217Z,3.38
2019-02-18T06:41:00.630Z,3.45
2019-02-18T06:43:30.077Z,3.43
2019-02-18T06:46:06.827Z,3.40
2019-02-18T06:48:37.998Z,3.38
2019-02-18T06:51:07.483Z,3.40
2019-02-18T06:53:36.913Z,3.34
2019-02-18T06:56:06.359Z,3.31
2019-02-18T06:58:46.158Z,3.38
2019-02-18T07:01:17.253Z,3.41
2019-02-18T07:03:48.380Z,3.41
2019-02-18T07:06:28.208Z,3.42
2019-02-18T07:08:59.268Z,3.48
2019-02-18T07:11:31.800Z,3.56
2019-02-18T07:14:01.224Z,3.66
2019-02-18T07:16:30.666Z,3.73
2019-02-18T07:19:00.158Z,3.77
2019-02-18T07:21:29.596Z,3.82
2019-02-18T07:23:59.090Z,3.91
2019-02-18T07:26:28.526Z,3.99
2019-02-18T07:28:58.012Z,4.04
2019-02-18T07:31:27.444Z,4.11
2019-02-18T07:33:56.878Z,4.15
2019-02-18T07:36:26.316Z,4.20
2019-02-18T07:38:55.746Z,4.28
2019-02-18T07:41:25.189Z,4.37
2019-02-18T07:43:54.604Z,4.42
2019-02-18T07:46:24.046Z,4.48
2019-02-18T07:48:53.467Z,4.56
2019-02-18T07:51:25.945Z,4.62
2019-02-18T07:53:55.430Z,4.68
2019-02-18T07:56:24.858Z,4.78
2019-02-18T07:58:54.281Z,4.88
2019-02-18T08:01:23.711Z,4.94
2019-02-18T08:03:55.497Z,5.01
2019-02-18T08:06:24.947Z,5.06
2019-02-18T08:08:54.370Z,5.06
2019-02-18T08:11:23.809Z,4.96
2019-02-18T08:13:53.239Z,5.12
2019-02-18T08:16:22.659Z,5.13
2019-02-18T08:18:52.074Z,5.21
2019-02-18T08:21:21.521Z,5.33
2019-02-18T08:23:59.598Z,5.45
2019-02-18T08:26:22.142Z,5.55
2019-02-18T08:28:51.570Z,5.69
2019-02-18T08:31:21.065Z,5.82
2019-02-18T08:33:50.495Z,5.96
2019-02-18T08:36:20.028Z,6.11
2019-02-18T08:38:49.429Z,6.25
2019-02-18T08:41:18.869Z,6.34
2019-02-18T08:43:48.287Z,6.49
2019-02-18T08:46:17.751Z,6.62
2019-02-18T08:48:47.164Z,6.73
2019-02-18T08:51:16.594Z,6.84
2019-02-18T08:53:47.832Z,6.96
2019-02-18T08:56:17.467Z,7.08
2019-02-18T08:58:46.980Z,7.16
2019-02-18T09:01:16.359Z,7.26
2019-02-18T09:03:45.786Z,7.36
2019-02-18T09:06:15.296Z,7.55
2019-02-18T09:08:44.753Z,7.68
2019-02-18T09:11:14.174Z,7.77
2019-02-18T09:13:43.592Z,7.84
2019-02-18T09:16:13.056Z,7.98
2019-02-18T09:18:42.751Z,8.10
2019-02-18T09:21:12.262Z,8.23
2019-02-18T09:23:43.420Z,8.38
2019-02-18T09:26:14.316Z,8.46
2019-02-18T09:28:43.776Z,8.45
2019-02-18T09:31:13.197Z,8.54
2019-02-18T09:33:42.628Z,8.60
2019-02-18T09:36:12.069Z,8.69
2019-02-18T09:38:43.118Z,8.86
2019-02-18T09:41:12.632Z,8.87
2019-02-18T09:43:42.054Z,8.99
2019-02-18T09:46:11.545Z,9.13
2019-02-18T09:48:43.762Z,9.18
2019-02-18T09:51:13.175Z,9.27
2019-02-18T09:53:42.613Z,9.41
2019-02-18T09:56:16.032Z,9.56
2019-02-18T09:58:45.702Z,9.62
2019-02-18T10:01:17.929Z,9.66
2019-02-18T10:03:47.377Z,9.80
2019-02-18T10:06:18.437Z,9.88
2019-02-18T10:08:47.878Z,9.97
2019-02-18T10:11:17.307Z,10.04
2019-02-18T10:13:46.745Z,10.21
2019-02-18T10:16:16.259Z,10.21
2019-02-18T10:18:45.757Z,10.36
2019-02-18T10:21:15.217Z,10.54
2019-02-18T10:23:44.913Z,10.63
2019-02-18T10:26:14.375Z,10.69
2019-02-18T10:28:44.383Z,10.75
2019-02-18T10:31:13.917Z,10.78
2019-02-18T10:33:43.343Z,10.81
2019-02-18T10:36:12.772Z,10.87
2019-02-18T10:38:42.285Z,10.92
2019-02-18T10:41:18.606Z,11.01
2019-02-18T10:43:47.736Z,11.14
2019-02-18T10:46:17.232Z,11.33
2019-02-18T10:48:46.767Z,11.41
2019-02-18T10:51:16.203Z,11.53
2019-02-18T10:53:45.629Z,11.56
2019-02-18T10:56:16.693Z,11.65
2019-02-18T10:58:46.398Z,11.65
2019-02-18T11:01:15.905Z,11.71
2019-02-18T11:03:45.399Z,11.76
2019-02-18T11:06:14.999Z,11.76
2019-02-18T11:08:44.419Z,11.93
2019-02-18T11:11:16.923Z,12.05
2019-02-18T11:13:45.669Z,12.07
2019-02-18T11:16:15.098Z,12.16
2019-02-18T11:18:44.551Z,12.18
2019-02-18T11:21:17.104Z,12.15
2019-02-18T11:23:46.566Z,12.21
2019-02-18T11:26:16.128Z,12.28
2019-02-18T11:28:45.548Z,12.29
2019-02-18T11:31:15.458Z,12.41
2019-02-18T11:33:45.165Z,12.39
2019-02-18T11:36:14.626Z,12.43
2019-02-18T11:38:44.049Z,12.52
2019-02-18T11:41:13.556Z,12.64
2019-02-18T11:43:43.152Z,12.72
2019-02-18T11:46:12.616Z,12.77
2019-02-18T11:48:42.066Z,12.74
2019-02-18T11:51:11.517Z,12.85
2019-02-18T11:53:40.926Z,12.94
2019-02-18T11:56:10.428Z,12.93
2019-02-18T11:58:40.327Z,12.95
2019-02-18T12:01:11.634Z,13.05
2019-02-18T12:03:41.070Z,13.09
2019-02-18T12:06:10.590Z,13.17
2019-02-18T12:08:40.018Z,13.18
2019-02-18T12:11:09.439Z,13.22
2019-02-18T12:13:38.881Z,13.26
2019-02-18T12:16:08.584Z,13.34
2019-02-18T12:18:38.023Z,13.33
2019-02-18T12:21:07.782Z,13.37
2019-02-18T12:23:39.252Z,13.44
2019-02-18T12:26:08.382Z,13.56
2019-02-18T12:28:37.881Z,13.57
2019-02-18T12:31:07.704Z,13.56
2019-02-18T12:33:37.127Z,13.57
2019-02-18T12:36:08.317Z,13.64
2019-02-18T12:38:37.719Z,13.70
2019-02-18T12:41:07.211Z,13.78
2019-02-18T12:43:36.727Z,13.77
2019-02-18T12:46:15.522Z,13.80
2019-02-18T12:48:38.099Z,13.90
2019-02-18T12:51:08.657Z,13.90
2019-02-18T12:53:38.115Z,14.00
2019-02-18T12:56:07.544Z,13.98
2019-02-18T12:58:36.973Z,14.01
2019-02-18T13:01:07.502Z,14.00
2019-02-18T13:03:36.989Z,14.00
2019-02-18T13:06:06.449Z,13.98
2019-02-18T13:08:36.031Z,14.08
2019-02-18T13:11:05.661Z,14.11
2019-02-18T13:13:35.151Z,14.19
2019-02-18T13:16:04.594Z,14.17
2019-02-18T13:18:34.534Z,14.21
2019-02-18T13:21:04.046Z,14.21
2019-02-18T13:23:33.541Z,14.29
2019-02-18T13:26:03.125Z,14.24
2019-02-18T13:28:32.539Z,14.26
2019-02-18T13:31:01.983Z,14.32
2019-02-18T13:33:33.326Z,14.46
2019-02-18T13:36:03.422Z,14.51
2019-02-18T13:38:33.006Z,14.56
2019-02-18T13:41:02.518Z,14.59
2019-02-18T13:43:32.019Z,14.55
2019-02-18T13:46:01.544Z,14.57
2019-02-18T13:48:32.308Z,14.58
2019-02-18T13:51:01.817Z,14.69
2019-02-18T13:53:31.319Z,14.77
2019-02-18T13:56:00.828Z,14.66
2019-02-18T13:58:30.346Z,14.64
2019-02-18T14:00:59.937Z,14.65
2019-02-18T14:03:29.827Z,14.57
2019-02-18T14:06:01.974Z,14.58
2019-02-18T14:08:31.482Z,14.63
2019-02-18T14:11:00.987Z,14.58
2019-02-18T14:13:30.557Z,14.52
2019-02-18T14:16:00.368Z,14.59
2019-02-18T14:18:29.850Z,14.58
2019-02-18T14:21:02.400Z,14.60
2019-02-18T14:23:31.824Z,14.63
2019-02-18T14:26:01.278Z,14.62
2019-02-18T14:28:32.499Z,14.60
2019-02-18T14:31:02.004Z,14.64
2019-02-18T14:33:31.434Z,14.57
2019-02-18T14:36:00.928Z,14.59
2019-02-18T14:38:32.952Z,14.59
2019-02-18T14:41:02.536Z,14.60
2019-02-18T14:43:31.996Z,14.59
2019-02-18T14:46:01.572Z,14.49
2019-02-18T14:48:31.094Z,14.48
2019-02-18T14:51:00.604Z,14.54
2019-02-18T14:53:30.108Z,14.55
2019-02-18T14:55:59.648Z,14.50
2019-02-18T14:58:29.462Z,14.47
2019-02-18T15:00:58.924Z,14.45
2019-02-18T15:03:28.394Z,14.39
2019-02-18T15:05:57.833Z,14.35
2019-02-18T15:08:27.378Z,14.28
2019-02-18T15:10:56.772Z,14.27
2019-02-18T15:13:26.684Z,14.28
2019-02-18T15:15:56.450Z,14.18
2019-02-18T15:18:26.251Z,14.12
2019-02-18T15:20:56.146Z,14.01
2019-02-18T15:23:25.702Z,13.98
2019-02-18T15:25:55.200Z,13.96
2019-02-18T15:28:24.923Z,13.91
2019-02-18T15:30:54.408Z,13.90
2019-02-18T15:33:23.867Z,13.84
2019-02-18T15:35:53.375Z,13.78
2019-02-18T15:38:22.796Z,13.72
2019-02-18T15:40:52.695Z,13.67
2019-02-18T15:43:22.339Z,13.58
2019-02-18T15:45:51.895Z,13.51
2019-02-18T15:48:21.344Z,13.46
2019-02-18T15:50:54.618Z,13.43
2019-02-18T15:53:24.034Z,13.32
2019-02-18T15:55:54.238Z,13.31
2019-02-18T15:58:23.685Z,13.19
2019-02-18T16:00:53.169Z,13.08
2019-02-18T16:03:22.691Z,13.01
2019-02-18T16:05:53.055Z,12.85
2019-02-18T16:08:22.508Z,12.75
2019-02-18T16:10:52.235Z,12.62
2019-02-18T16:13:21.738Z,12.53
2019-02-18T16:15:51.179Z,12.45
2019-02-18T16:18:20.671Z,12.36
2019-02-18T16:20:50.144Z,12.23
2019-02-18T16:23:19.570Z,12.09
2019-02-18T16:25:49.412Z,11.95
2019-02-18T16:28:18.848Z,11.82
2019-02-18T16:30:48.275Z,11.69
2019-02-18T16:33:17.738Z,11.53
2019-02-18T16:35:47.177Z,11.38
2019-02-18T16:38:16.712Z,11.17
2019-02-18T16:40:46.135Z,11.17
2019-02-18T16:43:15.573Z,11.05
2019-02-18T16:45:47.749Z,10.91
2019-02-18T16:48:19.654Z,10.78
2019-02-18T16:50:49.080Z,10.65
2019-02-18T16:53:18.897Z,10.65
2019-02-18T16:55:51.478Z,10.55
2019-02-18T16:58:23.637Z,10.43
2019-02-18T17:00:57.659Z,10.27
2019-02-18T17:03:28.000Z,10.18
2019-02-18T17:05:59.490Z,10.07
2019-02-18T17:08:31.289Z,9.94
2019-02-18T17:11:00.839Z,9.84
2019-02-18T17:13:30.382Z,9.82
2019-02-18T17:15:59.870Z,9.71
2019-02-18T17:18:29.303Z,9.59
2019-02-18T17:20:58.751Z,9.49
2019-02-18T17:23:28.172Z,9.38
2019-02-18T17:25:57.631Z,9.26
2019-02-18T17:28:27.056Z,9.16
2019-02-18T17:30:56.583Z,9.10
2019-02-18T17:33:26.078Z,9.00
2019-02-18T17:35:55.499Z,8.88
2019-02-18T17:38:26.000Z,8.84
2019-02-18T17:40:55.509Z,8.78
2019-02-18T17:43:25.043Z,8.80
2019-02-18T17:45:54.608Z,8.73
2019-02-18T17:48:25.726Z,8.68
2019-02-18T17:50:55.173Z,8.62
2019-02-18T17:53:24.691Z,8.66
2019-02-18T17:55:54.251Z,8.72
2019-02-18T17:58:23.681Z,8.82
2019-02-18T18:00:54.745Z,8.88
2019-02-18T18:03:24.655Z,8.98
2019-02-18T18:05:54.149Z,9.06
2019-02-18T18:08:23.697Z,9.17
2019-02-18T18:10:53.119Z,9.24
2019-02-18T18:13:25.184Z,9.22
2019-02-18T18:15:53.807Z,9.32
2019-02-18T18:18:24.173Z,9.28
2019-02-18T18:20:53.627Z,9.26
2019-02-18T18:23:23.066Z,9.24
2019-02-18T18:25:52.601Z,9.17
2019-02-18T18:28:22.293Z,9.06
2019-02-18T18:30:51.747Z,9.02
2019-02-18T18:33:21.385Z,8.68
2019-02-18T18:35:50.853Z,8.25
2019-02-18T18:38:22.778Z,7.91
2019-02-18T18:40:53.558Z,7.66
2019-02-18T18:43:23.001Z,7.50
2019-02-18T18:45:52.724Z,7.36
2019-02-18T18:48:22.235Z,7.29
2019-02-18T18:50:53.759Z,7.20
2019-02-18T18:53:23.216Z,7.19
2019-02-18T18:55:54.155Z,7.13
2019-02-18T18:58:24.594Z,7.13
2019-02-18T19:00:54.040Z,7.14
2019-02-18T19:03:23.476Z,7.13
2019-02-18T19:05:52.912Z,7.11
2019-02-18T19:08:22.340Z,7.19
2019-02-18T19:10:51.772Z,7.19
2019-02-18T19:13:21.732Z,7.15
2019-02-18T19:15:51.166Z,7.10
2019-02-18T19:18:21.660Z,7.02
2019-02-18T19:20:51.173Z,6.96
2019-02-18T19:23:20.670Z,6.92
2019-02-18T19:25:51.769Z,6.87
2019-02-18T19:28:21.250Z,6.95
2019-02-18T19:30:50.784Z,7.00
2019-02-18T19:33:20.283Z,7.06
2019-02-18T19:35:49.735Z,7.21
2019-02-18T19:38:22.144Z,7.39
2019-02-18T19:40:51.785Z,7.49
2019-02-18T19:43:21.272Z,7.69
2019-02-18T19:45:50.776Z,7.77
2019-02-18T19:48:20.239Z,7.86
2019-02-18T19:50:49.697Z,7.93
2019-02-18T19:53:19.136Z,7.93
2019-02-18T19:55:48.592Z,7.93
2019-02-18T19:58:21.058Z,7.92
2019-02-18T20:00:50.495Z,7.93
2019-02-18T20:03:19.933Z,7.95
2019-02-18T20:05:49.388Z,7.98
2019-02-18T20:08:19.266Z,8.06
2019-02-18T20:10:48.843Z,8.07
2019-02-18T20:13:18.361Z,8.13
2019-02-18T20:15:47.819Z,8.33
2019-02-18T20:18:17.254Z,8.49
2019-02-18T20:20:49.425Z,8.59
2019-02-18T20:23:18.855Z,8.63
2019-02-18T20:25:49.834Z,8.69
2019-02-18T20:28:19.399Z,8.69
2019-02-18T20:30:48.865Z,8.70
2019-02-18T20:33:19.970Z,8.65
2019-02-18T20:35:49.694Z,8.70
2019-02-18T20:38:19.185Z,8.67
2019-02-18T20:40:48.628Z,8.77
2019-02-18T20:43:18.195Z,8.81
2019-02-18T20:45:47.653Z,9.05
2019-02-18T20:48:17.685Z,9.07
2019-02-18T20:50:47.169Z,9.06
2019-02-18T20:53:16.587Z,9.10
2019-02-18T20:55:46.072Z,9.08
2019-02-18T20:58:15.513Z,9.02
2019-02-18T21:00:46.234Z,9.00
2019-02-18T21:03:15.880Z,9.07
2019-02-18T21:05:45.789Z,9.00
2019-02-18T21:08:15.265Z,8.99
2019-02-18T21:10:44.689Z,8.99
2019-02-18T21:13:14.125Z,8.98
2019-02-18T21:15:43.554Z,8.94
2019-02-18T21:18:13.459Z,8.90
2019-02-18T21:20:43.075Z,8.86
2019-02-18T21:23:12.518Z,8.85
2019-02-18T21:25:41.931Z,8.93
2019-02-18T21:28:11.375Z,8.94
2019-02-18T21:30:40.790Z,8.83
2019-02-18T21:33:10.423Z,8.83
2019-02-18T21:35:39.862Z,8.80
2019-02-18T21:38:09.284Z,8.70
2019-02-18T21:40:38.702Z,8.57
2019-02-18T21:43:08.150Z,8.55
2019-02-18T21:45:38.873Z,8.54
2019-02-18T21:48:11.406Z,8.43
2019-02-18T21:50:40.888Z,8.34
2019-02-18T21:53:10.410Z,8.31
2019-02-18T21:55:40.110Z,8.23
2019-02-18T21:58:11.108Z,8.17
2019-02-18T22:00:41.080Z,8.10
2019-02-18T22:03:11.652Z,8.12
2019-02-18T22:05:41.155Z,8.10
2019-02-18T22:08:10.574Z,8.08
2019-02-18T22:10:40.002Z,8.03
2019-02-18T22:13:09.715Z,8.03
2019-02-18T22:15:39.516Z,7.96
2019-02-18T22:18:08.964Z,7.94
2019-02-18T22:20:38.388Z,7.96
2019-02-18T22:23:07.888Z,8.00
2019-02-18T22:25:37.330Z,8.01
2019-02-18T22:28:08.283Z,8.08
2019-02-18T22:30:38.102Z,8.06
2019-02-18T22:33:07.616Z,8.11
2019-02-18T22:35:37.059Z,8.12
2019-02-18T22:38:06.475Z,8.16
2019-02-18T22:40:35.926Z,8.12
2019-02-18T22:43:05.493Z,8.09
2019-02-18T22:45:34.945Z,8.13
2019-02-18T22:48:04.375Z,8.09
2019-02-18T22:50:33.798Z,8.12
2019-02-18T22:53:03.242Z,8.08
2019-02-18T22:55:32.670Z,8.14
2019-02-18T22:58:02.118Z,8.10
2019-02-18T23:00:53.973Z,8.11
2019-02-18T23:03:24.923Z,8.04
2019-02-18T23:05:54.344Z,8.01
2019-02-18T23:08:23.864Z,7.95
2019-02-18T23:10:53.720Z,7.93
2019-02-18T23:13:23.306Z,7.87
2019-02-18T23:15:56.391Z,7.90
2019-02-18T23:18:26.131Z,7.93
2019-02-18T23:20:56.649Z,7.89
2019-02-18T23:23:26.061Z,7.89
2019-02-18T23:25:59.333Z,7.87
2019-02-18T23:28:29.233Z,7.85
2019-02-18T23:30:58.743Z,7.82
2019-02-18T23:33:28.164Z,7.79
2019-02-18T23:35:57.860Z,7.84
2019-02-18T23:38:33.009Z,7.79
2019-02-18T23:41:05.342Z,7.72
2019-02-18T23:43:34.823Z,7.73
2019-02-18T23:46:04.265Z,7.71
2019-02-18T23:48:34.400Z,7.68
2019-02-18T23:51:04.381Z,7.63
2019-02-18T23:53:33.796Z,7.60
2019-02-18T23:56:03.222Z,7.57
2019-02-18T23:58:34.580Z,7.56
